Time;durP1;ratioP1;P1;durP2;ratioP2;P2;SDS_P1;SDS_P2;PMS_P1;PMS_P2;Temp;Humidity;BMP_temperature;BMP_pressure;BME280_temperature;BME280_humidity;BME280_pressure;Samples;Min_cycle;Max_cycle;Signal;HPM_P1;HPM_P2
2021/09/29 00:00:13;;;;;;;10.60;4.00;;;;;;;11.40;86.03;97994.30;117146;1176;69068;-74
2021/09/29 00:03:02;;;;;;;9.20;4.20;;;;;;;11.37;87.35;97989.78;117186;1177;68460;-71
2021/09/29 00:05:32;;;;;;;7.90;4.10;;;;;;;11.35;87.67;97995.46;117105;1176;59568;-71
2021/09/29 00:08:09;;;;;;;7.20;4.00;;;;;;;11.34;87.42;97993.35;117080;1177;59472;-73
2021/09/29 00:10:41;;;;;;;10.10;4.60;;;;;;;11.35;87.63;97998.17;117060;1177;70541;-74
2021/09/29 00:13:11;;;;;;;9.70;4.60;;;;;;;11.35;87.37;97994.91;117014;1176;69128;-74
2021/09/29 00:15:41;;;;;;;10.90;4.80;;;;;;;11.35;86.80;97994.27;117094;1177;68492;-73
2021/09/29 00:18:10;;;;;;;10.80;5.30;;;;;;;11.34;86.66;97996.03;117018;1177;59587;-74
2021/09/29 00:20:40;;;;;;;8.30;4.50;;;;;;;11.33;86.74;97990.04;117109;1177;60033;-74
2021/09/29 00:23:09;;;;;;;8.10;4.50;;;;;;;11.31;86.36;97992.05;116873;1177;71369;-73
2021/09/29 00:25:39;;;;;;;8.80;4.40;;;;;;;11.29;87.04;97993.52;117088;1176;68481;-72
2021/09/29 00:28:09;;;;;;;8.50;4.60;;;;;;;11.26;86.53;97994.94;117102;1176;68482;-71
2021/09/29 00:30:50;;;;;;;7.00;4.30;;;;;;;11.25;87.03;97998.86;117081;1176;59463;-74
2021/09/29 00:33:20;;;;;;;6.90;3.90;;;;;;;11.25;86.35;97998.79;117190;1176;59488;-75
2021/09/29 00:35:50;;;;;;;9.60;4.00;;;;;;;11.20;86.51;97996.27;117104;1176;71158;-75
2021/09/29 00:38:19;;;;;;;8.70;4.60;;;;;;;11.18;86.36;97997.20;117108;1176;68474;-74
2021/09/29 00:40:49;;;;;;;8.30;4.20;;;;;;;11.19;87.03;98000.73;117129;1176;69256;-75
2021/09/29 00:43:19;;;;;;;7.50;3.80;;;;;;;11.18;87.81;98003.52;117121;1176;59528;-75
2021/09/29 00:45:48;;;;;;;11.80;4.40;;;;;;;11.19;88.04;98004.76;117153;1174;59526;-72
2021/09/29 00:48:18;;;;;;;11.00;4.10;;;;;;;11.19;88.63;98001.61;117019;1177;71383;-75
2021/09/29 00:50:49;;;;;;;8.10;4.80;;;;;;;11.17;88.38;97997.91;117073;1177;68454;-75
2021/09/29 00:53:18;;;;;;;8.40;4.30;;;;;;;11.18;87.77;98002.02;117113;1177;68234;-72
2021/09/29 00:55:48;;;;;;;8.80;4.70;;;;;;;11.18;87.89;98000.67;116971;1176;59598;-74
2021/09/29 00:58:18;;;;;;;10.30;4.60;;;;;;;11.17;87.94;98000.62;117039;1176;59539;-71
2021/09/29 01:00:47;;;;;;;9.30;4.10;;;;;;;11.14;88.46;98000.13;117160;1176;70638;-74
2021/09/29 01:03:17;;;;;;;7.70;4.10;;;;;;;11.13;87.98;98001.42;117121;1177;69219;-74
2021/09/29 01:05:47;;;;;;;11.50;4.60;;;;;;;11.10;87.98;98000.98;116984;1176;68458;-73
2021/09/29 01:08:25;;;;;;;9.30;4.80;;;;;;;11.07;88.13;98003.52;117032;1176;59533;-74
2021/09/29 01:11:06;;;;;;;9.40;4.90;;;;;;;11.04;88.30;98000.02;117213;1177;59529;-73
2021/09/29 01:14:01;;;;;;;8.50;4.50;;;;;;;11.03;88.51;97997.60;117164;1176;71357;-73
2021/09/29 01:16:35;;;;;;;7.60;4.70;;;;;;;11.02;88.97;97999.29;116954;1177;69526;-72
2021/09/29 01:19:20;;;;;;;7.30;4.50;;;;;;;11.03;88.76;98000.84;117101;1177;68082;-74
2021/09/29 01:21:59;;;;;;;7.50;4.40;;;;;;;11.04;88.71;98001.85;117133;1176;59906;-74
2021/09/29 01:24:43;;;;;;;8.50;5.10;;;;;;;11.05;88.75;98006.58;117090;1176;59529;-75
2021/09/29 01:27:14;;;;;;;8.30;4.80;;;;;;;11.07;88.76;98001.85;117035;1177;71389;-72
2021/09/29 01:29:44;;;;;;;;;;;;;;;11.08;88.27;97999.52;117146;1176;69221;-74
2021/09/29 01:32:14;;;;;;;7.30;4.40;;;;;;;11.08;87.65;98000.89;117142;1176;67381;-73
2021/09/29 01:34:44;;;;;;;10.10;4.60;;;;;;;11.07;87.91;97999.63;117188;1176;59542;-73
2021/09/29 01:37:16;;;;;;;8.60;4.70;;;;;;;11.08;88.03;98002.32;117248;1177;59444;-71
2021/09/29 01:39:46;;;;;;;8.40;4.80;;;;;;;11.08;88.02;97997.73;117246;1177;71347;-74
2021/09/29 01:42:16;;;;;;;9.10;4.30;;;;;;;11.07;88.49;98003.77;117057;1177;68433;-69
2021/09/29 01:44:46;;;;;;;10.40;4.50;;;;;;;11.06;88.17;98002.35;117129;1177;68504;-71
2021/09/29 01:47:17;;;;;;;10.20;4.60;;;;;;;11.05;88.23;98005.09;117241;1177;59525;-73
2021/09/29 01:49:50;;;;;;;6.70;4.10;;;;;;;11.02;88.02;98008.48;117175;1176;59458;-71
2021/09/29 01:52:22;;;;;;;10.40;4.20;;;;;;;11.00;87.88;98004.41;117275;1176;71637;-72
2021/09/29 01:54:51;;;;;;;9.60;3.90;;;;;;;10.98;87.84;97998.90;117052;1177;67565;-74
2021/09/29 01:57:22;;;;;;;9.10;4.30;;;;;;;10.96;87.67;97999.59;117225;1177;67738;-74
2021/09/29 01:59:52;;;;;;;;;;;;;;;10.95;87.34;98002.85;117316;1177;59488;-75
2021/09/29 02:02:21;;;;;;;7.10;3.60;;;;;;;10.93;86.90;98003.04;117257;1176;59532;-70
2021/09/29 02:04:52;;;;;;;5.80;3.90;;;;;;;10.92;86.89;98002.41;117205;1173;71241;-70
2021/09/29 02:07:23;;;;;;;7.20;3.80;;;;;;;10.92;86.76;98001.39;117321;1177;69119;-73
2021/09/29 02:09:52;;;;;;;9.90;4.00;;;;;;;10.92;86.75;97998.80;117166;1176;68410;-73
2021/09/29 02:12:21;;;;;;;8.00;3.80;;;;;;;10.89;86.79;97996.87;117221;1176;59513;-70
2021/09/29 02:14:50;;;;;;;14.40;4.10;;;;;;;10.87;87.19;98000.64;117149;1177;59504;-73
2021/09/29 02:17:20;;;;;;;7.20;3.50;;;;;;;10.84;86.76;98001.27;117218;1177;71805;-74
2021/09/29 02:19:50;;;;;;;8.70;4.30;;;;;;;10.81;86.96;97999.84;117175;1176;68364;-72
2021/09/29 02:22:20;;;;;;;6.30;3.60;;;;;;;10.78;87.18;97999.65;117107;1176;68177;-73
2021/09/29 02:24:52;;;;;;;9.50;3.30;;;;;;;10.76;87.26;98003.47;117176;1177;59533;-70
2021/09/29 02:27:21;;;;;;;5.90;3.50;;;;;;;10.74;87.02;98006.13;117143;1176;59532;-75
2021/09/29 02:29:51;;;;;;;;;;;;;;;10.72;87.03;98008.07;117046;1176;71153;-73
2021/09/29 02:32:21;;;;;;;8.10;3.60;;;;;;;10.70;86.83;98009.79;117141;1176;69149;-73
2021/09/29 02:34:51;;;;;;;8.70;3.60;;;;;;;10.68;86.74;98009.83;116968;1177;68432;-70
2021/09/29 02:37:20;;;;;;;7.50;3.30;;;;;;;10.67;86.85;98009.77;117108;1176;59905;-72
2021/09/29 02:39:50;;;;;;;6.60;3.10;;;;;;;10.67;87.49;98006.54;117186;1176;59468;-72
2021/09/29 02:42:21;;;;;;;8.10;3.10;;;;;;;10.67;87.68;98007.09;117098;1176;71532;-73
2021/09/29 02:44:51;;;;;;;6.30;3.30;;;;;;;10.68;88.25;98008.16;117073;1176;68265;-71
2021/09/29 02:47:21;;;;;;;6.70;3.50;;;;;;;10.68;88.35;98007.23;117120;1176;69210;-72
2021/09/29 02:49:50;;;;;;;8.00;3.40;;;;;;;10.68;88.01;98009.75;117027;1176;59542;-71
2021/09/29 02:52:19;;;;;;;7.20;3.20;;;;;;;10.69;87.65;98014.48;117114;1176;59510;-73
2021/09/29 02:54:49;;;;;;;11.20;3.40;;;;;;;10.70;87.81;98014.54;117002;1176;71370;-70
2021/09/29 02:57:19;;;;;;;6.20;3.10;;;;;;;10.71;88.07;98015.95;117110;1177;68712;-72
2021/09/29 02:59:48;;;;;;;7.70;4.40;;;;;;;10.71;87.85;98016.10;117097;1177;68460;-73
2021/09/29 03:02:18;;;;;;;7.40;3.00;;;;;;;10.69;87.94;98017.49;117161;1177;59443;-73
2021/09/29 03:04:47;;;;;;;5.00;2.90;;;;;;;10.67;88.18;98016.66;117176;1176;59452;-74
2021/09/29 03:07:17;;;;;;;6.80;2.80;;;;;;;10.67;87.50;98016.02;117141;1177;71388;-70
2021/09/29 03:09:47;;;;;;;5.90;2.70;;;;;;;10.68;86.96;98019.25;117147;1176;69237;-72
2021/09/29 03:12:17;;;;;;;4.70;2.30;;;;;;;10.69;86.54;98018.45;116943;1177;69063;-73
2021/09/29 03:14:46;;;;;;;5.90;3.10;;;;;;;10.68;85.74;98017.91;117001;1176;59471;-74
2021/09/29 03:17:16;;;;;;;5.60;2.70;;;;;;;10.70;86.36;98020.16;117037;1169;59545;-73
2021/09/29 03:19:45;;;;;;;5.30;2.50;;;;;;;10.71;86.52;98019.96;117091;1176;70619;-71
2021/09/29 03:22:14;;;;;;;5.00;3.10;;;;;;;10.72;86.42;98017.17;117120;1177;69430;-74
2021/09/29 03:24:44;;;;;;;6.40;3.00;;;;;;;10.74;86.41;98014.61;117051;1176;69501;-71
2021/09/29 03:27:14;;;;;;;6.00;3.40;;;;;;;10.74;86.48;98014.75;117125;1177;59510;-74
2021/09/29 03:29:43;;;;;;;5.50;3.10;;;;;;;10.73;86.30;98009.33;117072;1177;59468;-74
2021/09/29 03:32:13;;;;;;;10.40;3.00;;;;;;;10.70;87.09;98006.45;117010;1177;69614;-74
2021/09/29 03:34:43;;;;;;;6.00;3.00;;;;;;;10.69;87.10;98007.67;117121;1176;70324;-74
2021/09/29 03:37:13;;;;;;;7.80;3.30;;;;;;;10.68;87.54;98006.42;117019;1176;69118;-74
2021/09/29 03:39:42;;;;;;;6.40;2.80;;;;;;;10.68;87.17;98007.54;116969;1177;59522;-73
2021/09/29 03:42:12;;;;;;;5.30;2.70;;;;;;;10.67;85.84;98003.29;117121;1176;59503;-72
2021/09/29 03:44:42;;;;;;;4.10;2.80;;;;;;;10.65;85.36;97999.85;117224;1177;70488;-71
2021/09/29 03:47:11;;;;;;;6.90;3.00;;;;;;;10.64;85.31;98004.54;117181;1176;69176;-74
2021/09/29 03:49:41;;;;;;;5.20;3.00;;;;;;;10.62;84.64;98007.13;116925;1178;68405;-75
2021/09/29 03:52:11;;;;;;;8.30;2.80;;;;;;;10.61;85.20;98008.86;117285;1176;59541;-75
2021/09/29 03:54:40;;;;;;;8.30;3.40;;;;;;;10.59;84.96;98008.11;116982;1177;59458;-74
2021/09/29 03:57:09;;;;;;;6.60;2.90;;;;;;;10.59;85.34;98010.64;117109;1177;70555;-74
2021/09/29 03:59:38;;;;;;;5.10;3.30;;;;;;;10.60;85.36;98012.44;117095;1177;69338;-74
2021/09/29 04:02:07;;;;;;;6.70;3.30;;;;;;;10.61;85.97;98014.48;117132;1177;69435;-75
2021/09/29 04:04:37;;;;;;;5.20;3.00;;;;;;;10.62;85.65;98014.33;117168;1177;59471;-75
2021/09/29 04:07:06;;;;;;;9.30;3.60;;;;;;;10.61;85.98;98009.35;117185;1176;59494;-75
2021/09/29 04:09:35;;;;;;;7.70;3.70;;;;;;;10.61;85.80;98008.72;117145;1177;70257;-73
2021/09/29 04:12:05;;;;;;;7.60;3.80;;;;;;;10.59;85.93;98009.84;117043;1177;68477;-73
2021/09/29 04:14:34;;;;;;;5.30;3.00;;;;;;;10.58;86.30;98010.80;117093;1176;70245;-74
2021/09/29 04:17:03;;;;;;;5.70;3.50;;;;;;;10.57;86.23;98011.13;117153;1176;59455;-71
2021/09/29 04:19:33;;;;;;;6.90;3.30;;;;;;;10.55;85.92;98011.95;117134;1177;59514;-71
2021/09/29 04:22:02;;;;;;;5.30;3.00;;;;;;;10.55;85.72;98009.67;117165;1176;71501;-71
2021/09/29 04:24:31;;;;;;;5.10;2.90;;;;;;;10.56;84.99;98009.81;117152;1177;70186;-75
2021/09/29 04:27:00;;;;;;;5.60;3.30;;;;;;;10.57;84.62;98008.45;117142;1177;69357;-75
2021/09/29 04:29:29;;;;;;;7.40;3.00;;;;;;;10.54;84.33;98000.98;117081;1177;59532;-74
2021/09/29 04:31:59;;;;;;;6.60;3.10;;;;;;;10.54;84.56;98001.00;117160;1177;59510;-74
2021/09/29 04:34:28;;;;;;;8.00;3.30;;;;;;;10.51;84.57;98000.73;117143;1176;70578;-73
2021/09/29 04:36:57;;;;;;;7.80;3.70;;;;;;;10.48;85.34;98001.77;117033;1177;69230;-71
2021/09/29 04:39:27;;;;;;;7.70;3.80;;;;;;;10.46;85.50;98007.19;117224;1177;68342;-72
2021/09/29 04:41:56;;;;;;;7.50;3.80;;;;;;;10.44;85.32;98008.33;117090;1173;59528;-73
2021/09/29 04:44:26;;;;;;;6.80;3.70;;;;;;;10.43;85.13;98011.99;117132;1177;59592;-72
2021/09/29 04:46:55;;;;;;;8.00;3.90;;;;;;;10.43;84.99;98016.91;117139;1177;71491;-72
2021/09/29 04:49:24;;;;;;;6.70;3.30;;;;;;;10.44;85.14;98021.23;117151;1177;69061;-75
2021/09/29 04:51:53;;;;;;;5.50;3.60;;;;;;;10.44;85.14;98027.87;117070;1177;69249;-75
2021/09/29 04:54:22;;;;;;;5.80;3.50;;;;;;;10.47;85.22;98029.64;117095;1177;59521;-74
2021/09/29 04:56:51;;;;;;;5.50;3.40;;;;;;;10.48;84.69;98029.69;117080;1177;59524;-73
2021/09/29 04:59:20;;;;;;;6.30;3.20;;;;;;;10.52;83.40;98031.19;116999;1177;70432;-74
2021/09/29 05:01:49;;;;;;;8.00;3.40;;;;;;;10.54;81.88;98029.64;117167;1177;68960;-74
2021/09/29 05:04:24;;;;;;;6.40;3.30;;;;;;;10.57;81.88;98029.81;117124;1177;68460;-72
2021/09/29 05:06:54;;;;;;;5.40;3.30;;;;;;;10.60;82.34;98029.93;116953;1176;59918;-71
2021/09/29 05:09:24;;;;;;;4.90;3.50;;;;;;;10.65;82.28;98029.91;117122;1177;59488;-71
2021/09/29 05:12:04;;;;;;;6.60;3.60;;;;;;;10.68;82.37;98027.48;117116;1177;71949;-73
2021/09/29 05:14:33;;;;;;;9.40;3.90;;;;;;;10.72;81.51;98028.27;117136;1176;69220;-72
2021/09/29 05:17:02;;;;;;;8.00;4.00;;;;;;;10.72;81.39;98030.16;117079;1177;68893;-73
2021/09/29 05:19:31;;;;;;;11.30;4.20;;;;;;;10.74;81.27;98035.89;117009;1176;59539;-74
2021/09/29 05:22:00;;;;;;;6.20;3.90;;;;;;;10.79;81.56;98039.21;117054;1176;59516;-74
2021/09/29 05:24:29;;;;;;;7.90;4.10;;;;;;;10.82;81.69;98041.92;116939;1177;70393;-74
2021/09/29 05:26:59;;;;;;;7.10;4.30;;;;;;;10.87;81.55;98045.61;117030;1177;67660;-74
2021/09/29 05:29:29;;;;;;;7.20;4.10;;;;;;;10.92;82.41;98049.45;117029;1174;68468;-71
2021/09/29 05:31:59;;;;;;;;;;;;;;;10.98;82.48;98052.84;117035;1177;59520;-73
2021/09/29 05:34:28;;;;;;;6.90;4.30;;;;;;;11.01;82.14;98052.44;116998;1177;59502;-74
2021/09/29 05:36:57;;;;;;;5.90;3.90;;;;;;;11.06;81.72;98050.98;117114;1177;71247;-72
2021/09/29 05:39:26;;;;;;;9.80;4.40;;;;;;;11.11;80.56;98050.40;117168;1177;69344;-73
2021/09/29 05:41:55;;;;;;;10.60;4.40;;;;;;;11.13;79.64;98050.76;116983;1177;68261;-74
2021/09/29 05:44:24;;;;;;;7.40;4.00;;;;;;;11.17;79.95;98048.21;117094;1176;59504;-75
2021/09/29 05:46:53;;;;;;;9.90;5.60;;;;;;;11.20;79.31;98050.91;117055;1176;59538;-74
2021/09/29 05:49:21;;;;;;;10.10;4.70;;;;;;;11.23;79.30;98057.35;117246;1177;71493;-72
2021/09/29 05:51:50;;;;;;;9.10;4.40;;;;;;;11.28;79.84;98059.22;117062;1177;68277;-74
2021/09/29 05:54:20;;;;;;;9.40;4.70;;;;;;;11.35;80.04;98060.59;117204;1177;69211;-73
2021/09/29 05:56:49;;;;;;;6.90;3.70;;;;;;;11.40;79.35;98063.25;116992;1177;59505;-74
2021/09/29 05:59:18;;;;;;;7.10;3.80;;;;;;;11.43;77.15;98064.48;117133;1177;59529;-73
2021/09/29 06:01:47;;;;;;;7.50;3.60;;;;;;;11.50;77.45;98064.13;116952;1177;70431;-72
2021/09/29 06:04:17;;;;;;;6.10;3.50;;;;;;;11.58;77.90;98072.27;116967;1177;69331;-74
2021/09/29 06:06:45;;;;;;;6.70;3.40;;;;;;;11.62;75.79;98074.23;117174;1177;68241;-73
2021/09/29 06:09:14;;;;;;;5.90;3.50;;;;;;;11.65;76.30;98079.60;117169;1176;60491;-73
2021/09/29 06:11:43;;;;;;;7.80;3.80;;;;;;;11.71;76.03;98077.51;117025;1176;59517;-72
2021/09/29 06:14:14;;;;;;;6.50;4.10;;;;;;;11.73;76.28;98074.04;117200;1176;69770;-71
2021/09/29 06:16:45;;;;;;;7.40;4.50;;;;;;;11.76;76.16;98072.69;117171;1176;68247;-74
2021/09/29 06:19:17;;;;;;;8.30;4.70;;;;;;;11.80;76.50;98070.48;117113;1177;69257;-72
2021/09/29 06:21:46;;;;;;;8.80;4.20;;;;;;;11.85;76.25;98071.33;117121;1177;59590;-74
2021/09/29 06:24:15;;;;;;;6.50;4.20;;;;;;;11.92;75.18;98073.70;117059;1177;59535;-70
2021/09/29 06:26:44;;;;;;;8.20;4.30;;;;;;;11.97;75.05;98076.89;117019;1177;70690;-73
2021/09/29 06:29:13;;;;;;;6.60;3.90;;;;;;;12.02;74.85;98079.02;117311;1176;69065;-75
2021/09/29 06:31:42;;;;;;;9.70;3.90;;;;;;;12.09;74.23;98082.30;117069;1176;69213;-73
2021/09/29 06:34:12;;;;;;;9.40;4.00;;;;;;;12.20;74.65;98082.52;117045;1177;59523;-73
2021/09/29 06:36:40;;;;;;;8.30;4.00;;;;;;;12.30;73.61;98086.84;117143;1176;59523;-73
2021/09/29 06:39:10;;;;;;;6.40;3.80;;;;;;;12.39;71.99;98085.67;116971;1177;70406;-74
2021/09/29 06:41:41;;;;;;;7.70;3.80;;;;;;;12.44;71.98;98090.48;116945;1177;68496;-74
2021/09/29 06:44:12;;;;;;;7.30;3.60;;;;;;;12.52;71.44;98091.21;116999;1177;69232;-74
2021/09/29 06:46:41;;;;;;;8.60;3.60;;;;;;;12.59;70.09;98090.95;116960;1177;59541;-74
2021/09/29 06:49:10;;;;;;;7.60;3.90;;;;;;;12.69;70.29;98089.40;117013;1177;59534;-73
2021/09/29 06:51:39;;;;;;;9.00;3.50;;;;;;;12.78;69.53;98098.38;117003;1177;71282;-72
2021/09/29 06:54:08;;;;;;;10.20;3.80;;;;;;;12.89;69.88;98099.95;117084;1177;69085;-73
2021/09/29 06:56:37;;;;;;;8.20;3.80;;;;;;;13.02;68.62;98102.70;117031;1174;69348;-73
2021/09/29 06:59:06;;;;;;;9.60;3.90;;;;;;;13.13;67.82;98100.90;117065;1177;59504;-73
2021/09/29 07:01:35;;;;;;;7.30;3.70;;;;;;;13.24;67.35;98106.55;117102;1177;59504;-74
2021/09/29 07:04:04;;;;;;;7.30;3.70;;;;;;;13.42;66.40;98108.32;117086;1176;70414;-74
2021/09/29 07:06:34;;;;;;;5.70;3.70;;;;;;;13.71;65.61;98112.13;117079;1177;69194;-74
2021/09/29 07:09:03;;;;;;;8.30;3.70;;;;;;;13.95;64.24;98117.49;117070;1177;69379;-73
2021/09/29 07:11:32;;;;;;;6.00;3.90;;;;;;;14.08;63.23;98115.95;117072;1176;59533;-74
2021/09/29 07:14:02;;;;;;;6.30;3.20;;;;;;;14.25;62.88;98118.10;117068;1176;59497;-74
2021/09/29 07:16:31;;;;;;;7.30;3.50;;;;;;;14.39;62.24;98120.45;117022;1177;70667;-74
2021/09/29 07:19:03;;;;;;;8.70;3.80;;;;;;;14.53;60.14;98119.83;116883;1177;69215;-70
2021/09/29 07:21:32;;;;;;;10.60;4.00;;;;;;;14.63;58.99;98120.54;117072;1176;69164;-73
2021/09/29 07:24:01;;;;;;;10.10;3.70;;;;;;;14.64;59.49;98123.02;117042;1176;59469;-70
2021/09/29 07:26:30;;;;;;;10.80;3.90;;;;;;;14.75;59.67;98127.13;116933;1176;59446;-72
2021/09/29 07:29:00;;;;;;;7.30;3.80;;;;;;;14.77;57.32;98127.84;116997;1177;71191;-74
2021/09/29 07:31:30;;;;;;;10.40;3.60;;;;;;;14.89;57.88;98125.91;117008;1177;68560;-72
2021/09/29 07:33:59;;;;;;;5.40;3.60;;;;;;;14.91;57.96;98129.98;117000;1177;68465;-73
2021/09/29 07:36:28;;;;;;;7.90;3.80;;;;;;;14.83;57.52;98132.27;116973;1177;59544;-68
2021/09/29 07:38:57;;;;;;;11.80;3.40;;;;;;;14.72;56.07;98133.17;117127;1177;59529;-75
2021/09/29 07:41:26;;;;;;;6.90;3.70;;;;;;;14.63;56.78;98139.24;116965;1177;70422;-73
2021/09/29 07:43:56;;;;;;;9.50;3.90;;;;;;;14.52;56.64;98133.00;116892;1177;69501;-71
2021/09/29 07:46:26;;;;;;;7.90;3.40;;;;;;;14.42;57.55;98134.45;116949;1174;69016;-69
2021/09/29 07:48:56;;;;;;;7.80;3.50;;;;;;;14.47;58.11;98131.66;116922;1177;59555;-74
2021/09/29 07:51:28;;;;;;;9.20;4.00;;;;;;;14.62;57.48;98135.02;116649;1177;59808;-74
2021/09/29 07:53:58;;;;;;;9.20;3.70;;;;;;;14.86;57.35;98133.04;116943;1177;71658;-73
2021/09/29 07:56:27;;;;;;;5.90;3.50;;;;;;;15.22;56.21;98134.61;116944;1177;68643;-73
2021/09/29 07:58:57;;;;;;;9.70;3.80;;;;;;;15.45;54.81;98134.64;116888;1177;69844;-69
2021/09/29 08:01:27;;;;;;;10.80;3.70;;;;;;;15.56;53.27;98130.63;116876;1177;59568;-73
2021/09/29 08:03:59;;;;;;;8.50;3.60;;;;;;;15.55;54.45;98131.21;116906;1177;59532;-74
2021/09/29 08:06:29;;;;;;;6.70;3.60;;;;;;;15.59;54.10;98119.98;116907;1170;71282;-74
2021/09/29 08:08:59;;;;;;;6.60;3.20;;;;;;;15.66;52.57;98125.33;116820;1179;69212;-69
2021/09/29 08:11:29;;;;;;;7.40;3.50;;;;;;;16.00;53.07;98123.76;116969;1176;69451;-74
2021/09/29 08:13:59;;;;;;;;;;;;;;;16.16;53.12;98122.95;116942;1177;59580;-71
2021/09/29 08:16:29;;;;;;;6.30;3.40;;;;;;;16.31;51.87;98129.73;116888;1177;59516;-74
2021/09/29 08:18:59;;;;;;;8.10;2.90;;;;;;;16.35;50.69;98123.33;116928;1177;71366;-75
2021/09/29 08:21:31;;;;;;;8.70;3.60;;;;;;;16.32;50.98;98121.65;116969;1177;68509;-74
2021/09/29 08:24:22;;;;;;;7.50;3.40;;;;;;;15.96;50.70;98124.61;116976;1177;69267;-69
2021/09/29 08:29:46;;;;;;;7.60;3.50;;;;;;;15.69;52.21;98122.58;116840;1179;59569;-74
2021/09/29 08:32:22;;;;;;;7.80;3.60;;;;;;;15.49;52.80;98123.86;117021;1176;70639;-73
2021/09/29 08:34:59;;;;;;;7.40;3.40;;;;;;;15.33;52.73;98128.28;116890;1177;69268;-73
2021/09/29 08:37:35;;;;;;;11.30;4.10;;;;;;;15.25;52.84;98119.75;116820;1170;69568;-74
2021/09/29 08:40:18;;;;;;;8.70;3.30;;;;;;;15.17;52.89;98117.25;116805;1177;59527;-75
2021/09/29 08:43:42;;;;;;;6.70;3.80;;;;;;;15.02;52.82;98117.33;116666;1178;59597;-72
2021/09/29 08:46:04;;;;;;;5.40;3.30;;;;;;;15.10;53.33;98118.23;116962;1177;70717;-73
2021/09/29 08:51:27;;;;;;;10.90;3.50;;;;;;;15.29;52.60;98114.55;117003;1177;69273;-74
2021/09/29 09:16:12;;;;;;;8.80;3.30;;;;;;;18.19;44.65;98107.08;116906;1179;69204;-73
2021/09/29 09:18:50;;;;;;;7.20;3.10;;;;;;;18.00;45.39;98107.45;116676;1177;68659;-74
2021/09/29 09:21:20;;;;;;;5.70;3.20;;;;;;;17.83;45.85;98108.42;116945;1177;59526;-70
2021/09/29 09:24:16;;;;;;;10.10;3.60;;;;;;;17.89;45.19;98114.16;116932;1177;59516;-74
2021/09/29 09:27:07;;;;;;;6.10;3.30;;;;;;;18.10;44.98;98119.77;116885;1176;71372;-73
2021/09/29 09:29:49;;;;;;;11.30;3.10;;;;;;;18.01;44.20;98113.43;116977;1177;69163;-75
2021/09/29 09:32:23;;;;;;;7.00;3.10;;;;;;;18.00;43.29;98111.59;116880;1177;70204;-75
2021/09/29 09:35:05;;;;;;;6.70;3.50;;;;;;;18.36;43.23;98118.48;116908;1177;59667;-71
2021/09/29 09:37:39;;;;;;;6.30;3.20;;;;;;;19.23;42.05;98120.87;116917;1177;59548;-72
2021/09/29 09:40:18;;;;;;;8.50;3.50;;;;;;;19.72;40.96;98117.58;117001;1177;71302;-72
2021/09/29 09:42:56;;;;;;;6.00;3.30;;;;;;;20.25;39.42;98110.84;116933;1177;69111;-72
2021/09/29 09:45:47;;;;;;;6.20;3.10;;;;;;;20.48;38.53;98112.44;116856;1177;69149;-75
2021/09/29 09:48:26;;;;;;;7.40;3.30;;;;;;;20.65;38.57;98110.31;116865;1177;59884;-74
2021/09/29 09:51:07;;;;;;;6.10;2.90;;;;;;;21.29;38.51;98109.64;116902;1177;59544;-72
2021/09/29 09:53:37;;;;;;;6.90;2.90;;;;;;;21.77;36.37;98119.36;117015;1176;71401;-74
2021/09/29 09:56:19;;;;;;;4.80;2.90;;;;;;;21.75;36.74;98117.61;116883;1177;67720;-75
2021/09/29 09:58:52;;;;;;;5.40;3.10;;;;;;;22.04;36.90;98114.30;116903;1177;69233;-72
2021/09/29 10:01:28;;;;;;;7.00;3.00;;;;;;;22.25;36.70;98112.20;117044;1176;59490;-72
2021/09/29 10:04:09;;;;;;;5.50;3.10;;;;;;;21.94;36.23;98110.48;116950;1177;59553;-74
2021/09/29 10:06:40;;;;;;;8.20;2.80;;;;;;;21.62;37.18;98113.80;116876;1177;70562;-71
2021/09/29 10:09:28;;;;;;;8.10;3.10;;;;;;;21.34;37.24;98114.20;116970;1176;68637;-74
2021/09/29 10:22:52;;;;;;;5.50;3.00;;;;;;;20.70;38.82;98103.57;116945;1173;70696;-72
2021/09/29 10:23:51;;;;;;;6.50;2.90;;;;;;;20.32;39.38;98099.98;116999;1177;68719;-71
2021/09/29 10:29:13;;;;;;;6.90;2.90;;;;;;;19.59;40.42;98093.38;116961;1177;59532;-75
2021/09/29 10:34:40;;;;;;;6.30;3.40;;;;;;;19.02;41.72;98090.05;116976;1177;71392;-70
2021/09/29 10:37:26;;;;;;;5.00;3.20;;;;;;;18.95;42.42;98086.00;116957;1177;69115;-73
2021/09/29 10:40:19;;;;;;;6.80;3.00;;;;;;;18.65;42.99;98093.19;116547;1180;69249;-73
2021/09/29 10:43:01;;;;;;;6.80;3.10;;;;;;;18.54;44.01;98095.96;116847;1178;59517;-75
2021/09/29 11:11:31;;;;;;;9.30;3.30;;;;;;;18.98;43.37;98091.21;116854;1177;59562;-73
2021/09/29 11:28:26;;;;;;;10.10;3.60;;;;;;;18.84;44.17;98073.95;116903;1177;59439;-75
2021/09/29 11:31:16;;;;;;;7.60;3.30;;;;;;;19.19;43.63;98079.66;116989;1177;71613;-71
2021/09/29 11:33:57;;;;;;;10.30;3.60;;;;;;;19.39;41.89;98072.50;116943;1177;69109;-72
2021/09/29 12:10:16;;;;;;;5.80;3.00;;;;;;;20.88;37.83;98072.11;116603;1180;59476;-79
2021/09/29 12:12:51;;;;;;;6.50;3.00;;;;;;;21.40;37.33;98070.82;116585;1179;70676;-69
2021/09/29 12:15:23;;;;;;;4.60;3.00;;;;;;;21.66;36.46;98069.31;116646;1177;68215;-75
2021/09/29 12:17:54;;;;;;;8.00;3.00;;;;;;;21.85;36.64;98071.91;116803;1179;68530;-74
2021/09/29 12:20:27;;;;;;;6.10;3.00;;;;;;;22.13;35.53;98068.73;116802;1176;59516;-75
2021/09/29 12:23:03;;;;;;;6.20;3.30;;;;;;;21.88;36.61;98064.96;116681;1179;59506;-75
2021/09/29 12:25:43;;;;;;;5.90;3.30;;;;;;;21.79;36.16;98060.18;116687;1177;70727;-74
2021/09/29 12:31:30;;;;;;;6.20;3.00;;;;;;;21.71;36.59;98059.27;116750;1179;69609;-74
2021/09/29 12:36:36;;;;;;;5.90;3.40;;;;;;;21.17;37.20;98058.95;116640;1177;59525;-73
2021/09/29 12:39:20;;;;;;;9.50;3.50;;;;;;;20.88;37.76;98058.24;116697;1180;71293;-75
2021/09/29 12:41:56;;;;;;;8.40;3.70;;;;;;;20.42;39.03;98060.77;116834;1179;69623;-71
2021/09/29 12:44:30;;;;;;;6.70;3.40;;;;;;;19.99;39.69;98064.60;116590;1177;69579;-75
2021/09/29 12:47:10;;;;;;;5.90;3.10;;;;;;;19.73;41.05;98072.36;116788;1179;59561;-72
2021/09/29 12:49:43;;;;;;;7.40;3.20;;;;;;;19.84;41.44;98070.35;116953;1177;59519;-75
2021/09/29 12:52:34;;;;;;;6.10;3.20;;;;;;;19.75;41.67;98075.77;116866;1179;71857;-75
2021/09/29 12:55:07;;;;;;;6.80;3.50;;;;;;;19.32;41.30;98070.15;116680;1177;68492;-76
2021/09/29 12:57:53;;;;;;;5.20;3.20;;;;;;;19.13;42.51;98072.55;116761;1178;69173;-72
2021/09/29 13:00:24;;;;;;;7.60;3.80;;;;;;;19.00;42.76;98075.58;116806;1177;59513;-72
2021/09/29 13:03:05;;;;;;;7.40;3.40;;;;;;;18.65;43.19;98067.19;116959;1177;59552;-74
2021/09/29 13:05:36;;;;;;;4.60;3.20;;;;;;;18.54;43.33;98065.84;116952;1177;71352;-69
2021/09/29 13:08:07;;;;;;;6.90;3.30;;;;;;;18.62;43.39;98071.14;116953;1177;68469;-75
2021/09/29 13:10:36;;;;;;;6.50;3.40;;;;;;;19.04;42.65;98075.04;117031;1176;69068;-74
2021/09/29 13:13:06;;;;;;;9.30;3.50;;;;;;;18.99;42.27;98074.73;117052;1173;59532;-74
2021/09/29 13:15:40;;;;;;;7.30;3.50;;;;;;;19.00;42.38;98077.17;116974;1177;59510;-73
2021/09/29 13:18:15;;;;;;;6.90;3.30;;;;;;;19.09;41.80;98079.17;117187;1177;71939;-73
2021/09/29 13:20:49;;;;;;;5.30;3.60;;;;;;;19.20;41.46;98077.17;117079;1177;68783;-73
2021/09/29 13:23:32;;;;;;;8.30;3.50;;;;;;;19.06;41.52;98072.42;117088;1177;69198;-74
2021/09/29 13:36:58;;;;;;;5.40;3.50;;;;;;;18.78;41.86;98079.59;117079;1177;68939;-74
2021/09/29 13:39:28;;;;;;;6.90;3.50;;;;;;;19.21;41.20;98084.39;117067;1177;59510;-72
2021/09/29 13:41:57;;;;;;;5.80;3.40;;;;;;;19.55;40.71;98083.63;117001;1177;59478;-72
2021/09/29 13:44:26;;;;;;;7.70;3.90;;;;;;;19.54;39.76;98084.84;117115;1177;71925;-73
2021/09/29 13:46:55;;;;;;;6.80;3.50;;;;;;;19.26;39.34;98086.84;116988;1177;68065;-72
2021/09/29 13:49:24;;;;;;;7.20;3.60;;;;;;;19.20;39.47;98090.86;116986;1177;69262;-73
2021/09/29 13:51:56;;;;;;;9.80;3.40;;;;;;;19.08;40.30;98090.84;117216;1177;59548;-73
2021/09/29 13:54:26;;;;;;;4.60;3.20;;;;;;;18.83;40.66;98094.40;117061;1177;59527;-74
2021/09/29 13:57:18;;;;;;;16.90;3.60;;;;;;;18.51;41.42;98096.67;117073;1176;70690;-73
2021/09/29 14:02:35;;;;;;;5.70;3.60;;;;;;;17.62;43.48;98092.36;117117;1177;69225;-71